sensor_id;sensor_type;location;lat;lon;timestamp;P1;durP1;ratioP1;P2;durP2;ratioP2
52866;SDS011;38739;53.324;6.862;2023-10-09T00:00:08;6.93;;;3.90;;
52866;SDS011;38739;53.324;6.862;2023-10-09T00:02:52;11.27;;;4.22;;
52866;SDS011;38739;53.324;6.862;2023-10-09T00:05:19;6.55;;;3.95;;
52866;SDS011;38739;53.324;6.862;2023-10-09T00:07:49;10.13;;;3.70;;
52866;SDS011;38739;53.324;6.862;2023-10-09T00:10:21;10.23;;;4.18;;
52866;SDS011;38739;53.324;6.862;2023-10-09T00:12:47;9.50;;;3.90;;
52866;SDS011;38739;53.324;6.862;2023-10-09T00:15:14;8.35;;;3.78;;
52866;SDS011;38739;53.324;6.862;2023-10-09T00:17:43;8.80;;;4.00;;
52866;SDS011;38739;53.324;6.862;2023-10-09T00:20:12;9.45;;;3.83;;
52866;SDS011;38739;53.324;6.862;2023-10-09T00:22:46;8.55;;;3.72;;
52866;SDS011;38739;53.324;6.862;2023-10-09T00:25:12;8.35;;;3.58;;
52866;SDS011;38739;53.324;6.862;2023-10-09T00:27:46;12.25;;;3.60;;
52866;SDS011;38739;53.324;6.862;2023-10-09T00:30:14;6.57;;;3.45;;
52866;SDS011;38739;53.324;6.862;2023-10-09T00:32:46;10.07;;;3.60;;
52866;SDS011;38739;53.324;6.862;2023-10-09T00:35:26;9.73;;;3.67;;
52866;SDS011;38739;53.324;6.862;2023-10-09T00:38:01;7.10;;;3.80;;
52866;SDS011;38739;53.324;6.862;2023-10-09T00:40:38;7.60;;;3.67;;
52866;SDS011;38739;53.324;6.862;2023-10-09T00:43:10;7.72;;;3.72;;
52866;SDS011;38739;53.324;6.862;2023-10-09T00:45:38;8.57;;;3.65;;
52866;SDS011;38739;53.324;6.862;2023-10-09T00:48:08;7.57;;;3.70;;
52866;SDS011;38739;53.324;6.862;2023-10-09T00:50:35;9.38;;;4.03;;
52866;SDS011;38739;53.324;6.862;2023-10-09T00:53:01;8.38;;;3.90;;
52866;SDS011;38739;53.324;6.862;2023-10-09T00:55:33;10.55;;;3.92;;
52866;SDS011;38739;53.324;6.862;2023-10-09T00:58:08;10.85;;;4.47;;
52866;SDS011;38739;53.324;6.862;2023-10-09T01:00:42;10.15;;;4.25;;
52866;SDS011;38739;53.324;6.862;2023-10-09T01:03:08;10.77;;;4.68;;
52866;SDS011;38739;53.324;6.862;2023-10-09T01:08:21;10.48;;;4.70;;
52866;SDS011;38739;53.324;6.862;2023-10-09T01:10:54;10.07;;;4.80;;
52866;SDS011;38739;53.324;6.862;2023-10-09T01:13:33;12.68;;;5.00;;
52866;SDS011;38739;53.324;6.862;2023-10-09T01:16:25;12.82;;;5.40;;
52866;SDS011;38739;53.324;6.862;2023-10-09T01:18:52;12.70;;;5.30;;
52866;SDS011;38739;53.324;6.862;2023-10-09T01:21:22;13.48;;;5.57;;
52866;SDS011;38739;53.324;6.862;2023-10-09T01:23:50;12.82;;;5.60;;
52866;SDS011;38739;53.324;6.862;2023-10-09T01:26:31;13.63;;;5.75;;
52866;SDS011;38739;53.324;6.862;2023-10-09T01:29:14;10.32;;;6.22;;
52866;SDS011;38739;53.324;6.862;2023-10-09T01:31:46;12.23;;;6.35;;
52866;SDS011;38739;53.324;6.862;2023-10-09T01:36:57;14.85;;;6.93;;
52866;SDS011;38739;53.324;6.862;2023-10-09T01:39:25;18.50;;;7.82;;
52866;SDS011;38739;53.324;6.862;2023-10-09T01:41:55;13.20;;;7.32;;
52866;SDS011;38739;53.324;6.862;2023-10-09T01:44:27;19.08;;;8.15;;
52866;SDS011;38739;53.324;6.862;2023-10-09T01:46:56;16.42;;;7.57;;
52866;SDS011;38739;53.324;6.862;2023-10-09T01:49:23;20.33;;;8.32;;
52866;SDS011;38739;53.324;6.862;2023-10-09T01:51:56;20.10;;;8.15;;
52866;SDS011;38739;53.324;6.862;2023-10-09T01:54:32;22.40;;;8.55;;
52866;SDS011;38739;53.324;6.862;2023-10-09T01:57:07;19.17;;;8.57;;
52866;SDS011;38739;53.324;6.862;2023-10-09T01:59:40;21.75;;;9.10;;
52866;SDS011;38739;53.324;6.862;2023-10-09T02:02:09;20.88;;;9.00;;
52866;SDS011;38739;53.324;6.862;2023-10-09T02:05:04;20.77;;;9.35;;
52866;SDS011;38739;53.324;6.862;2023-10-09T02:07:31;19.45;;;8.48;;
52866;SDS011;38739;53.324;6.862;2023-10-09T02:10:06;23.35;;;9.98;;
52866;SDS011;38739;53.324;6.862;2023-10-09T02:12:56;25.30;;;11.20;;
52866;SDS011;38739;53.324;6.862;2023-10-09T02:15:29;23.75;;;10.93;;
52866;SDS011;38739;53.324;6.862;2023-10-09T02:18:08;27.85;;;11.55;;
52866;SDS011;38739;53.324;6.862;2023-10-09T02:20:47;33.60;;;12.60;;
52866;SDS011;38739;53.324;6.862;2023-10-09T02:23:26;31.70;;;13.05;;
52866;SDS011;38739;53.324;6.862;2023-10-09T02:26:04;37.85;;;15.15;;
52866;SDS011;38739;53.324;6.862;2023-10-09T02:28:34;40.35;;;15.45;;
52866;SDS011;38739;53.324;6.862;2023-10-09T02:31:01;32.92;;;14.95;;
52866;SDS011;38739;53.324;6.862;2023-10-09T02:33:35;40.40;;;15.95;;
52866;SDS011;38739;53.324;6.862;2023-10-09T02:36:04;35.13;;;16.13;;
52866;SDS011;38739;53.324;6.862;2023-10-09T02:38:33;41.38;;;16.60;;
52866;SDS011;38739;53.324;6.862;2023-10-09T02:41:05;44.65;;;16.98;;
52866;SDS011;38739;53.324;6.862;2023-10-09T02:43:32;39.60;;;16.55;;
52866;SDS011;38739;53.324;6.862;2023-10-09T02:46:05;41.63;;;16.30;;
52866;SDS011;38739;53.324;6.862;2023-10-09T02:48:55;36.17;;;14.90;;
52866;SDS011;38739;53.324;6.862;2023-10-09T02:51:26;42.53;;;16.50;;
52866;SDS011;38739;53.324;6.862;2023-10-09T02:53:56;41.47;;;16.58;;
52866;SDS011;38739;53.324;6.862;2023-10-09T02:56:23;45.03;;;17.70;;
52866;SDS011;38739;53.324;6.862;2023-10-09T02:58:53;39.75;;;16.70;;
52866;SDS011;38739;53.324;6.862;2023-10-09T03:01:21;37.53;;;17.38;;
52866;SDS011;38739;53.324;6.862;2023-10-09T03:03:46;41.03;;;17.95;;
52866;SDS011;38739;53.324;6.862;2023-10-09T03:06:13;43.95;;;18.33;;
52866;SDS011;38739;53.324;6.862;2023-10-09T03:08:53;43.50;;;17.05;;
52866;SDS011;38739;53.324;6.862;2023-10-09T03:11:22;43.55;;;18.40;;
52866;SDS011;38739;53.324;6.862;2023-10-09T03:13:48;42.20;;;17.88;;
52866;SDS011;38739;53.324;6.862;2023-10-09T03:16:15;38.25;;;16.52;;
52866;SDS011;38739;53.324;6.862;2023-10-09T03:18:51;43.88;;;17.25;;
52866;SDS011;38739;53.324;6.862;2023-10-09T03:21:18;42.88;;;18.63;;
52866;SDS011;38739;53.324;6.862;2023-10-09T03:23:45;41.95;;;17.48;;
52866;SDS011;38739;53.324;6.862;2023-10-09T03:26:17;41.83;;;18.27;;
52866;SDS011;38739;53.324;6.862;2023-10-09T03:28:47;40.45;;;18.50;;
52866;SDS011;38739;53.324;6.862;2023-10-09T03:31:14;48.13;;;20.08;;
52866;SDS011;38739;53.324;6.862;2023-10-09T03:33:40;44.20;;;20.50;;
52866;SDS011;38739;53.324;6.862;2023-10-09T03:36:06;49.42;;;20.25;;
52866;SDS011;38739;53.324;6.862;2023-10-09T03:38:38;51.30;;;21.48;;
52866;SDS011;38739;53.324;6.862;2023-10-09T03:41:05;52.28;;;21.48;;
52866;SDS011;38739;53.324;6.862;2023-10-09T03:43:34;44.63;;;21.30;;
52866;SDS011;38739;53.324;6.862;2023-10-09T03:46:05;53.20;;;23.50;;
52866;SDS011;38739;53.324;6.862;2023-10-09T03:48:38;44.88;;;20.75;;
52866;SDS011;38739;53.324;6.862;2023-10-09T03:51:08;50.10;;;22.95;;
52866;SDS011;38739;53.324;6.862;2023-10-09T03:53:36;55.88;;;23.95;;
52866;SDS011;38739;53.324;6.862;2023-10-09T03:56:03;61.78;;;25.38;;
52866;SDS011;38739;53.324;6.862;2023-10-09T03:58:36;47.53;;;22.30;;
52866;SDS011;38739;53.324;6.862;2023-10-09T04:01:08;49.30;;;24.55;;
52866;SDS011;38739;53.324;6.862;2023-10-09T04:04:03;54.40;;;24.67;;
52866;SDS011;38739;53.324;6.862;2023-10-09T04:06:31;44.53;;;22.25;;
52866;SDS011;38739;53.324;6.862;2023-10-09T04:08:58;51.33;;;24.67;;
52866;SDS011;38739;53.324;6.862;2023-10-09T04:11:49;54.83;;;24.63;;
52866;SDS011;38739;53.324;6.862;2023-10-09T04:14:42;57.15;;;24.30;;
52866;SDS011;38739;53.324;6.862;2023-10-09T04:17:22;51.42;;;24.25;;
52866;SDS011;38739;53.324;6.862;2023-10-09T04:19:54;55.15;;;25.45;;
52866;SDS011;38739;53.324;6.862;2023-10-09T04:22:38;52.90;;;23.88;;
52866;SDS011;38739;53.324;6.862;2023-10-09T04:25:08;53.78;;;25.48;;
52866;SDS011;38739;53.324;6.862;2023-10-09T04:27:40;56.03;;;24.13;;
52866;SDS011;38739;53.324;6.862;2023-10-09T04:30:06;50.65;;;24.75;;
52866;SDS011;38739;53.324;6.862;2023-10-09T04:32:32;54.97;;;24.75;;
52866;SDS011;38739;53.324;6.862;2023-10-09T04:35:00;57.42;;;25.15;;
52866;SDS011;38739;53.324;6.862;2023-10-09T04:37:44;56.75;;;24.60;;
52866;SDS011;38739;53.324;6.862;2023-10-09T04:40:17;60.75;;;26.42;;
52866;SDS011;38739;53.324;6.862;2023-10-09T04:43:02;58.92;;;25.98;;
52866;SDS011;38739;53.324;6.862;2023-10-09T04:45:41;58.63;;;27.67;;
52866;SDS011;38739;53.324;6.862;2023-10-09T04:48:12;61.78;;;27.58;;
52866;SDS011;38739;53.324;6.862;2023-10-09T04:50:57;66.85;;;28.95;;
52866;SDS011;38739;53.324;6.862;2023-10-09T04:53:44;66.93;;;27.55;;
52866;SDS011;38739;53.324;6.862;2023-10-09T04:56:20;64.30;;;27.38;;
52866;SDS011;38739;53.324;6.862;2023-10-09T04:58:49;63.22;;;26.85;;
52866;SDS011;38739;53.324;6.862;2023-10-09T05:01:28;62.78;;;27.88;;
52866;SDS011;38739;53.324;6.862;2023-10-09T05:04:17;60.10;;;27.33;;
52866;SDS011;38739;53.324;6.862;2023-10-09T05:07:00;58.17;;;25.85;;
52866;SDS011;38739;53.324;6.862;2023-10-09T05:09:46;64.68;;;28.17;;
52866;SDS011;38739;53.324;6.862;2023-10-09T05:12:21;60.83;;;27.88;;
52866;SDS011;38739;53.324;6.862;2023-10-09T05:14:51;61.88;;;27.90;;
52866;SDS011;38739;53.324;6.862;2023-10-09T05:17:34;66.40;;;28.48;;
52866;SDS011;38739;53.324;6.862;2023-10-09T05:20:03;65.68;;;28.15;;
52866;SDS011;38739;53.324;6.862;2023-10-09T05:22:48;58.55;;;27.58;;
52866;SDS011;38739;53.324;6.862;2023-10-09T05:25:26;58.70;;;26.85;;
52866;SDS011;38739;53.324;6.862;2023-10-09T05:28:11;61.45;;;27.08;;
52866;SDS011;38739;53.324;6.862;2023-10-09T05:30:55;64.20;;;26.77;;
52866;SDS011;38739;53.324;6.862;2023-10-09T05:33:34;56.90;;;25.77;;
52866;SDS011;38739;53.324;6.862;2023-10-09T05:36:04;59.35;;;26.02;;
52866;SDS011;38739;53.324;6.862;2023-10-09T05:38:56;59.85;;;25.88;;
52866;SDS011;38739;53.324;6.862;2023-10-09T05:41:42;51.35;;;23.75;;
52866;SDS011;38739;53.324;6.862;2023-10-09T05:44:14;54.97;;;25.05;;
52866;SDS011;38739;53.324;6.862;2023-10-09T05:46:58;56.72;;;23.52;;
52866;SDS011;38739;53.324;6.862;2023-10-09T05:49:50;53.80;;;23.13;;
52866;SDS011;38739;53.324;6.862;2023-10-09T05:52:33;51.20;;;20.75;;
52866;SDS011;38739;53.324;6.862;2023-10-09T05:55:08;49.72;;;21.13;;
52866;SDS011;38739;53.324;6.862;2023-10-09T05:57:49;49.13;;;21.02;;
52866;SDS011;38739;53.324;6.862;2023-10-09T06:00:28;43.78;;;20.75;;
52866;SDS011;38739;53.324;6.862;2023-10-09T06:03:12;43.65;;;20.77;;
52866;SDS011;38739;53.324;6.862;2023-10-09T06:05:44;48.38;;;20.40;;
52866;SDS011;38739;53.324;6.862;2023-10-09T06:08:29;48.60;;;19.75;;
52866;SDS011;38739;53.324;6.862;2023-10-09T06:11:06;49.33;;;20.02;;
52866;SDS011;38739;53.324;6.862;2023-10-09T06:13:54;44.47;;;19.20;;
52866;SDS011;38739;53.324;6.862;2023-10-09T06:16:39;39.83;;;18.63;;
52866;SDS011;38739;53.324;6.862;2023-10-09T06:19:09;48.47;;;19.13;;
52866;SDS011;38739;53.324;6.862;2023-10-09T06:21:49;44.55;;;18.75;;
52866;SDS011;38739;53.324;6.862;2023-10-09T06:24:21;35.88;;;16.60;;
52866;SDS011;38739;53.324;6.862;2023-10-09T06:27:06;47.80;;;17.10;;
52866;SDS011;38739;53.324;6.862;2023-10-09T06:29:32;39.30;;;16.67;;
52866;SDS011;38739;53.324;6.862;2023-10-09T06:32:04;43.70;;;16.35;;
52866;SDS011;38739;53.324;6.862;2023-10-09T06:34:50;37.80;;;16.20;;
52866;SDS011;38739;53.324;6.862;2023-10-09T06:37:18;37.90;;;16.40;;
52866;SDS011;38739;53.324;6.862;2023-10-09T06:39:50;38.70;;;15.63;;
52866;SDS011;38739;53.324;6.862;2023-10-09T06:42:26;36.65;;;15.55;;
52866;SDS011;38739;53.324;6.862;2023-10-09T06:45:01;32.65;;;14.15;;
52866;SDS011;38739;53.324;6.862;2023-10-09T06:47:41;37.42;;;14.75;;
52866;SDS011;38739;53.324;6.862;2023-10-09T06:50:34;34.25;;;13.85;;
52866;SDS011;38739;53.324;6.862;2023-10-09T06:53:19;33.35;;;13.32;;
52866;SDS011;38739;53.324;6.862;2023-10-09T06:55:45;31.40;;;13.07;;
52866;SDS011;38739;53.324;6.862;2023-10-09T06:58:17;37.10;;;13.75;;
52866;SDS011;38739;53.324;6.862;2023-10-09T07:00:53;33.33;;;13.43;;
52866;SDS011;38739;53.324;6.862;2023-10-09T07:03:24;36.25;;;13.23;;
52866;SDS011;38739;53.324;6.862;2023-10-09T07:06:10;32.20;;;12.93;;
52866;SDS011;38739;53.324;6.862;2023-10-09T07:08:54;31.48;;;12.70;;
52866;SDS011;38739;53.324;6.862;2023-10-09T07:11:37;30.25;;;12.38;;
52866;SDS011;38739;53.324;6.862;2023-10-09T07:14:15;33.83;;;12.98;;
52866;SDS011;38739;53.324;6.862;2023-10-09T07:17:05;30.88;;;12.50;;
52866;SDS011;38739;53.324;6.862;2023-10-09T07:19:43;28.52;;;12.52;;
52866;SDS011;38739;53.324;6.862;2023-10-09T07:22:12;26.42;;;12.40;;
52866;SDS011;38739;53.324;6.862;2023-10-09T07:24:49;34.30;;;12.35;;
52866;SDS011;38739;53.324;6.862;2023-10-09T07:27:29;32.28;;;13.05;;
52866;SDS011;38739;53.324;6.862;2023-10-09T07:30:14;31.35;;;11.80;;
52866;SDS011;38739;53.324;6.862;2023-10-09T07:32:57;26.15;;;11.77;;
52866;SDS011;38739;53.324;6.862;2023-10-09T07:35:33;31.73;;;12.10;;
52866;SDS011;38739;53.324;6.862;2023-10-09T07:38:09;32.70;;;12.23;;
52866;SDS011;38739;53.324;6.862;2023-10-09T07:40:49;35.05;;;11.80;;
52866;SDS011;38739;53.324;6.862;2023-10-09T07:43:45;34.83;;;11.82;;
52866;SDS011;38739;53.324;6.862;2023-10-09T07:46:11;26.38;;;11.93;;
52866;SDS011;38739;53.324;6.862;2023-10-09T07:49:02;30.67;;;11.73;;
52866;SDS011;38739;53.324;6.862;2023-10-09T07:51:43;34.72;;;11.45;;
52866;SDS011;38739;53.324;6.862;2023-10-09T07:54:11;32.72;;;11.68;;
52866;SDS011;38739;53.324;6.862;2023-10-09T07:56:40;27.92;;;11.50;;
52866;SDS011;38739;53.324;6.862;2023-10-09T07:59:10;36.92;;;11.63;;
52866;SDS011;38739;53.324;6.862;2023-10-09T08:01:40;26.45;;;11.30;;
52866;SDS011;38739;53.324;6.862;2023-10-09T08:04:28;34.55;;;11.88;;
52866;SDS011;38739;53.324;6.862;2023-10-09T08:07:04;29.00;;;11.95;;
52866;SDS011;38739;53.324;6.862;2023-10-09T08:09:35;33.75;;;11.10;;
52866;SDS011;38739;53.324;6.862;2023-10-09T08:12:11;27.27;;;11.63;;
52866;SDS011;38739;53.324;6.862;2023-10-09T08:15:01;30.75;;;11.15;;
52866;SDS011;38739;53.324;6.862;2023-10-09T08:20:22;30.40;;;10.63;;
52866;SDS011;38739;53.324;6.862;2023-10-09T08:22:54;27.75;;;11.18;;
52866;SDS011;38739;53.324;6.862;2023-10-09T08:25:21;32.85;;;11.20;;
52866;SDS011;38739;53.324;6.862;2023-10-09T08:28:02;30.40;;;10.98;;
52866;SDS011;38739;53.324;6.862;2023-10-09T08:30:57;32.33;;;10.98;;
52866;SDS011;38739;53.324;6.862;2023-10-09T08:33:29;27.35;;;10.82;;
52866;SDS011;38739;53.324;6.862;2023-10-09T08:36:08;29.83;;;10.88;;
52866;SDS011;38739;53.324;6.862;2023-10-09T08:38:39;27.13;;;11.20;;
52866;SDS011;38739;53.324;6.862;2023-10-09T08:41:11;26.70;;;10.80;;
52866;SDS011;38739;53.324;6.862;2023-10-09T08:43:47;29.40;;;10.77;;
52866;SDS011;38739;53.324;6.862;2023-10-09T08:46:17;28.55;;;10.82;;
52866;SDS011;38739;53.324;6.862;2023-10-09T08:48:57;28.50;;;11.05;;
52866;SDS011;38739;53.324;6.862;2023-10-09T08:51:30;29.02;;;10.18;;
52866;SDS011;38739;53.324;6.862;2023-10-09T08:54:00;28.05;;;10.70;;
52866;SDS011;38739;53.324;6.862;2023-10-09T08:56:26;28.95;;;10.63;;
52866;SDS011;38739;53.324;6.862;2023-10-09T08:58:52;24.38;;;10.27;;
52866;SDS011;38739;53.324;6.862;2023-10-09T09:01:20;31.25;;;10.82;;
52866;SDS011;38739;53.324;6.862;2023-10-09T09:03:48;31.25;;;10.40;;
52866;SDS011;38739;53.324;6.862;2023-10-09T09:06:15;26.95;;;10.38;;
52866;SDS011;38739;53.324;6.862;2023-10-09T09:08:45;27.77;;;10.45;;
52866;SDS011;38739;53.324;6.862;2023-10-09T09:11:16;26.13;;;10.30;;
52866;SDS011;38739;53.324;6.862;2023-10-09T09:13:47;33.37;;;10.97;;
52866;SDS011;38739;53.324;6.862;2023-10-09T09:16:15;30.63;;;10.93;;
52866;SDS011;38739;53.324;6.862;2023-10-09T09:18:48;30.75;;;10.20;;
52866;SDS011;38739;53.324;6.862;2023-10-09T09:21:17;28.02;;;10.02;;
52866;SDS011;38739;53.324;6.862;2023-10-09T09:23:54;30.02;;;10.50;;
52866;SDS011;38739;53.324;6.862;2023-10-09T09:26:36;28.48;;;10.45;;
52866;SDS011;38739;53.324;6.862;2023-10-09T09:29:06;27.38;;;10.02;;
52866;SDS011;38739;53.324;6.862;2023-10-09T09:31:35;26.75;;;10.25;;
52866;SDS011;38739;53.324;6.862;2023-10-09T09:34:04;30.92;;;10.18;;
52866;SDS011;38739;53.324;6.862;2023-10-09T09:36:59;29.65;;;8.57;;
52866;SDS011;38739;53.324;6.862;2023-10-09T09:39:28;27.15;;;9.02;;
52866;SDS011;38739;53.324;6.862;2023-10-09T09:41:58;30.60;;;10.30;;
52866;SDS011;38739;53.324;6.862;2023-10-09T09:44:38;24.10;;;9.23;;
52866;SDS011;38739;53.324;6.862;2023-10-09T09:49:50;20.85;;;8.30;;
52866;SDS011;38739;53.324;6.862;2023-10-09T09:52:18;21.95;;;8.70;;
52866;SDS011;38739;53.324;6.862;2023-10-09T09:54:44;21.83;;;8.50;;
52866;SDS011;38739;53.324;6.862;2023-10-09T09:57:14;21.85;;;8.77;;
52866;SDS011;38739;53.324;6.862;2023-10-09T09:59:51;28.40;;;8.73;;
52866;SDS011;38739;53.324;6.862;2023-10-09T10:02:31;25.15;;;8.32;;
52866;SDS011;38739;53.324;6.862;2023-10-09T10:05:02;22.52;;;8.38;;
52866;SDS011;38739;53.324;6.862;2023-10-09T10:07:32;24.02;;;8.60;;
52866;SDS011;38739;53.324;6.862;2023-10-09T10:13:03;24.77;;;8.52;;
52866;SDS011;38739;53.324;6.862;2023-10-09T10:18:23;27.83;;;8.30;;
52866;SDS011;38739;53.324;6.862;2023-10-09T10:23:59;25.05;;;8.35;;
52866;SDS011;38739;53.324;6.862;2023-10-09T10:26:31;25.95;;;8.10;;
52866;SDS011;38739;53.324;6.862;2023-10-09T10:34:23;27.75;;;8.75;;
52866;SDS011;38739;53.324;6.862;2023-10-09T10:36:52;23.15;;;7.47;;
52866;SDS011;38739;53.324;6.862;2023-10-09T10:39:25;25.00;;;7.50;;
52866;SDS011;38739;53.324;6.862;2023-10-09T10:42:10;22.02;;;7.35;;
52866;SDS011;38739;53.324;6.862;2023-10-09T10:44:40;19.35;;;6.72;;
52866;SDS011;38739;53.324;6.862;2023-10-09T10:47:10;23.58;;;7.35;;
52866;SDS011;38739;53.324;6.862;2023-10-09T10:49:52;22.63;;;7.20;;
52866;SDS011;38739;53.324;6.862;2023-10-09T10:52:24;20.50;;;6.80;;
52866;SDS011;38739;53.324;6.862;2023-10-09T10:55:13;21.63;;;7.63;;
52866;SDS011;38739;53.324;6.862;2023-10-09T10:57:44;19.77;;;7.07;;
52866;SDS011;38739;53.324;6.862;2023-10-09T11:00:25;22.10;;;6.63;;
52866;SDS011;38739;53.324;6.862;2023-10-09T11:03:16;20.15;;;6.55;;
52866;SDS011;38739;53.324;6.862;2023-10-09T11:05:45;17.40;;;5.70;;
52866;SDS011;38739;53.324;6.862;2023-10-09T11:08:16;16.40;;;6.00;;
52866;SDS011;38739;53.324;6.862;2023-10-09T11:10:48;14.88;;;5.45;;
52866;SDS011;38739;53.324;6.862;2023-10-09T11:13:25;20.60;;;5.88;;
52866;SDS011;38739;53.324;6.862;2023-10-09T11:16:00;14.38;;;4.80;;
52866;SDS011;38739;53.324;6.862;2023-10-09T11:18:54;15.63;;;4.97;;
52866;SDS011;38739;53.324;6.862;2023-10-09T11:21:22;16.83;;;4.78;;
52866;SDS011;38739;53.324;6.862;2023-10-09T11:23:55;20.13;;;5.22;;
52866;SDS011;38739;53.324;6.862;2023-10-09T11:26:46;19.00;;;5.10;;
52866;SDS011;38739;53.324;6.862;2023-10-09T11:29:20;18.85;;;4.45;;
52866;SDS011;38739;53.324;6.862;2023-10-09T11:32:05;17.88;;;5.28;;
52866;SDS011;38739;53.324;6.862;2023-10-09T11:45:05;20.45;;;5.35;;
52866;SDS011;38739;53.324;6.862;2023-10-09T12:24:08;17.48;;;4.50;;
52866;SDS011;38739;53.324;6.862;2023-10-09T12:26:37;16.15;;;4.15;;
52866;SDS011;38739;53.324;6.862;2023-10-09T12:29:05;20.45;;;5.05;;
52866;SDS011;38739;53.324;6.862;2023-10-09T12:31:36;15.48;;;4.70;;
52866;SDS011;38739;53.324;6.862;2023-10-09T12:34:02;18.63;;;4.88;;
52866;SDS011;38739;53.324;6.862;2023-10-09T12:36:28;14.23;;;4.75;;
52866;SDS011;38739;53.324;6.862;2023-10-09T12:38:54;10.77;;;4.43;;
52866;SDS011;38739;53.324;6.862;2023-10-09T12:41:23;16.65;;;4.82;;
52866;SDS011;38739;53.324;6.862;2023-10-09T12:43:53;14.55;;;4.75;;
52866;SDS011;38739;53.324;6.862;2023-10-09T12:46:20;15.00;;;4.40;;
52866;SDS011;38739;53.324;6.862;2023-10-09T12:48:50;19.13;;;4.72;;
52866;SDS011;38739;53.324;6.862;2023-10-09T12:51:20;15.90;;;4.70;;
52866;SDS011;38739;53.324;6.862;2023-10-09T12:53:50;19.33;;;4.80;;
52866;SDS011;38739;53.324;6.862;2023-10-09T12:56:25;18.92;;;4.50;;
52866;SDS011;38739;53.324;6.862;2023-10-09T12:59:01;17.45;;;4.85;;
52866;SDS011;38739;53.324;6.862;2023-10-09T13:01:30;13.05;;;3.97;;
52866;SDS011;38739;53.324;6.862;2023-10-09T13:04:07;15.15;;;4.40;;
52866;SDS011;38739;53.324;6.862;2023-10-09T13:06:39;16.25;;;3.90;;
52866;SDS011;38739;53.324;6.862;2023-10-09T13:12:08;15.05;;;4.78;;
52866;SDS011;38739;53.324;6.862;2023-10-09T13:14:35;13.32;;;4.43;;
52866;SDS011;38739;53.324;6.862;2023-10-09T13:17:01;14.68;;;4.50;;
52866;SDS011;38739;53.324;6.862;2023-10-09T13:19:35;14.75;;;4.20;;
52866;SDS011;38739;53.324;6.862;2023-10-09T13:22:00;13.88;;;4.15;;
52866;SDS011;38739;53.324;6.862;2023-10-09T13:24:28;15.82;;;4.63;;
52866;SDS011;38739;53.324;6.862;2023-10-09T13:26:56;14.75;;;4.32;;
52866;SDS011;38739;53.324;6.862;2023-10-09T13:29:23;17.20;;;4.93;;
52866;SDS011;38739;53.324;6.862;2023-10-09T13:31:49;18.05;;;4.55;;
52866;SDS011;38739;53.324;6.862;2023-10-09T13:34:22;15.43;;;4.97;;
52866;SDS011;38739;53.324;6.862;2023-10-09T13:36:53;16.30;;;4.90;;
52866;SDS011;38739;53.324;6.862;2023-10-09T13:39:19;10.93;;;4.25;;
52866;SDS011;38739;53.324;6.862;2023-10-09T13:41:51;17.38;;;4.05;;
52866;SDS011;38739;53.324;6.862;2023-10-09T13:44:33;19.10;;;3.97;;
52866;SDS011;38739;53.324;6.862;2023-10-09T13:47:03;11.73;;;3.53;;
52866;SDS011;38739;53.324;6.862;2023-10-09T13:49:34;17.73;;;4.00;;
52866;SDS011;38739;53.324;6.862;2023-10-09T13:52:02;13.25;;;4.00;;
52866;SDS011;38739;53.324;6.862;2023-10-09T13:54:29;16.83;;;3.75;;
52866;SDS011;38739;53.324;6.862;2023-10-09T13:56:58;17.98;;;4.68;;
52866;SDS011;38739;53.324;6.862;2023-10-09T13:59:25;15.63;;;4.00;;
52866;SDS011;38739;53.324;6.862;2023-10-09T14:01:51;15.55;;;3.67;;
52866;SDS011;38739;53.324;6.862;2023-10-09T14:04:21;13.30;;;3.13;;
52866;SDS011;38739;53.324;6.862;2023-10-09T14:06:48;16.30;;;3.08;;
52866;SDS011;38739;53.324;6.862;2023-10-09T14:09:22;13.52;;;2.75;;
52866;SDS011;38739;53.324;6.862;2023-10-09T14:12:01;10.85;;;2.40;;
52866;SDS011;38739;53.324;6.862;2023-10-09T14:14:37;11.15;;;2.70;;
52866;SDS011;38739;53.324;6.862;2023-10-09T14:17:08;20.98;;;2.88;;
52866;SDS011;38739;53.324;6.862;2023-10-09T14:19:41;17.08;;;2.70;;
52866;SDS011;38739;53.324;6.862;2023-10-09T14:22:17;15.60;;;2.72;;
52866;SDS011;38739;53.324;6.862;2023-10-09T14:24:44;17.45;;;2.63;;
52866;SDS011;38739;53.324;6.862;2023-10-09T14:27:11;13.85;;;2.80;;
52866;SDS011;38739;53.324;6.862;2023-10-09T14:29:44;12.43;;;2.78;;
52866;SDS011;38739;53.324;6.862;2023-10-09T14:32:10;15.60;;;3.30;;
52866;SDS011;38739;53.324;6.862;2023-10-09T14:34:39;12.70;;;2.75;;
52866;SDS011;38739;53.324;6.862;2023-10-09T14:37:12;7.60;;;2.60;;
52866;SDS011;38739;53.324;6.862;2023-10-09T14:39:40;10.43;;;2.40;;
52866;SDS011;38739;53.324;6.862;2023-10-09T14:42:07;7.85;;;2.30;;
52866;SDS011;38739;53.324;6.862;2023-10-09T14:44:36;12.77;;;2.10;;
52866;SDS011;38739;53.324;6.862;2023-10-09T14:47:05;7.90;;;1.77;;
52866;SDS011;38739;53.324;6.862;2023-10-09T14:49:32;8.50;;;1.60;;
52866;SDS011;38739;53.324;6.862;2023-10-09T14:52:09;9.73;;;1.85;;
52866;SDS011;38739;53.324;6.862;2023-10-09T14:54:35;7.15;;;1.52;;
52866;SDS011;38739;53.324;6.862;2023-10-09T14:57:03;6.97;;;1.60;;
52866;SDS011;38739;53.324;6.862;2023-10-09T14:59:32;6.93;;;1.85;;
52866;SDS011;38739;53.324;6.862;2023-10-09T15:01:58;7.57;;;1.75;;
52866;SDS011;38739;53.324;6.862;2023-10-09T15:04:24;10.02;;;2.17;;
52866;SDS011;38739;53.324;6.862;2023-10-09T15:06:51;11.35;;;1.92;;
52866;SDS011;38739;53.324;6.862;2023-10-09T15:09:17;8.35;;;1.70;;
52866;SDS011;38739;53.324;6.862;2023-10-09T15:11:53;11.02;;;2.00;;
52866;SDS011;38739;53.324;6.862;2023-10-09T15:14:20;10.82;;;2.13;;
52866;SDS011;38739;53.324;6.862;2023-10-09T15:16:46;9.00;;;1.92;;
52866;SDS011;38739;53.324;6.862;2023-10-09T15:19:13;11.55;;;2.20;;
52866;SDS011;38739;53.324;6.862;2023-10-09T15:21:39;11.48;;;2.45;;
52866;SDS011;38739;53.324;6.862;2023-10-09T15:26:50;6.82;;;1.58;;
52866;SDS011;38739;53.324;6.862;2023-10-09T15:29:22;11.82;;;2.35;;
52866;SDS011;38739;53.324;6.862;2023-10-09T15:31:54;11.85;;;2.28;;
52866;SDS011;38739;53.324;6.862;2023-10-09T15:34:38;5.70;;;1.52;;
52866;SDS011;38739;53.324;6.862;2023-10-09T15:37:04;9.32;;;1.80;;
52866;SDS011;38739;53.324;6.862;2023-10-09T15:39:32;12.60;;;1.73;;
52866;SDS011;38739;53.324;6.862;2023-10-09T15:41:59;10.63;;;1.92;;
52866;SDS011;38739;53.324;6.862;2023-10-09T15:44:25;9.90;;;2.00;;
52866;SDS011;38739;53.324;6.862;2023-10-09T15:46:52;13.07;;;1.90;;
52866;SDS011;38739;53.324;6.862;2023-10-09T15:49:25;11.38;;;1.60;;
52866;SDS011;38739;53.324;6.862;2023-10-09T15:51:52;11.25;;;1.95;;
52866;SDS011;38739;53.324;6.862;2023-10-09T15:54:18;7.55;;;1.67;;
52866;SDS011;38739;53.324;6.862;2023-10-09T15:56:45;10.52;;;1.83;;
52866;SDS011;38739;53.324;6.862;2023-10-09T15:59:11;8.32;;;1.60;;
52866;SDS011;38739;53.324;6.862;2023-10-09T16:01:37;12.82;;;2.10;;
52866;SDS011;38739;53.324;6.862;2023-10-09T16:04:11;11.80;;;2.60;;
52866;SDS011;38739;53.324;6.862;2023-10-09T16:06:37;8.70;;;2.00;;
52866;SDS011;38739;53.324;6.862;2023-10-09T16:09:06;10.50;;;1.80;;
52866;SDS011;38739;53.324;6.862;2023-10-09T16:11:40;12.35;;;2.10;;
52866;SDS011;38739;53.324;6.862;2023-10-09T16:14:06;12.30;;;1.95;;
52866;SDS011;38739;53.324;6.862;2023-10-09T16:16:35;12.13;;;2.10;;
52866;SDS011;38739;53.324;6.862;2023-10-09T16:19:08;9.88;;;2.20;;
52866;SDS011;38739;53.324;6.862;2023-10-09T16:21:35;13.30;;;2.30;;